Terminal Aerodrome Forecast
Issued by NWS

Current Version | Previous Version | Text Only | Print | Product List | Glossary On
Versions: 1 2 3 4 5 6 7 8 9 10 11 12 13 14 15 16 17
210
FTUS46 KMTR 161734
TAFSJC
TAF
KSJC 161734Z 1618/1718 14005KT 3SM BR FEW005 SCT010 BKN012
     FM161830 31005KT P6SM FEW010 SCT200
     FM170300 VRB04KT P6SM SKC
     FM170900 12004KT 6SM BR FEW009 SCT200=

USA.gov is the U.S. government's official web portal to all federal, state and local government web resources and services.